sensor_id;sensor_type;location;lat;lon;timestamp;P1;durP1;ratioP1;P2;durP2;ratioP2
12703;SDS011;6416;52.182;7.650;2023-05-07T00:02:12;4.60;;;4.20;;
12703;SDS011;6416;52.182;7.650;2023-05-07T00:04:37;5.88;;;5.07;;
12703;SDS011;6416;52.182;7.650;2023-05-07T00:07:03;5.40;;;4.90;;
12703;SDS011;6416;52.182;7.650;2023-05-07T00:09:28;5.50;;;5.05;;
12703;SDS011;6416;52.182;7.650;2023-05-07T00:11:54;6.13;;;4.90;;
12703;SDS011;6416;52.182;7.650;2023-05-07T00:14:19;5.97;;;5.47;;
12703;SDS011;6416;52.182;7.650;2023-05-07T00:16:44;6.50;;;5.20;;
12703;SDS011;6416;52.182;7.650;2023-05-07T00:19:10;5.95;;;5.45;;
12703;SDS011;6416;52.182;7.650;2023-05-07T00:21:35;7.40;;;6.22;;
12703;SDS011;6416;52.182;7.650;2023-05-07T00:24:01;7.50;;;5.90;;
12703;SDS011;6416;52.182;7.650;2023-05-07T00:26:26;7.20;;;6.50;;
12703;SDS011;6416;52.182;7.650;2023-05-07T00:28:52;7.78;;;6.97;;
12703;SDS011;6416;52.182;7.650;2023-05-07T00:31:17;8.70;;;7.30;;
12703;SDS011;6416;52.182;7.650;2023-05-07T00:33:43;7.10;;;6.50;;
12703;SDS011;6416;52.182;7.650;2023-05-07T00:36:08;7.18;;;6.50;;
12703;SDS011;6416;52.182;7.650;2023-05-07T00:38:34;8.18;;;6.82;;
12703;SDS011;6416;52.182;7.650;2023-05-07T00:40:59;8.35;;;7.45;;
12703;SDS011;6416;52.182;7.650;2023-05-07T00:43:25;7.95;;;7.18;;
12703;SDS011;6416;52.182;7.650;2023-05-07T00:45:50;8.07;;;6.97;;
12703;SDS011;6416;52.182;7.650;2023-05-07T00:48:16;7.60;;;6.50;;
12703;SDS011;6416;52.182;7.650;2023-05-07T00:50:42;8.32;;;7.25;;
12703;SDS011;6416;52.182;7.650;2023-05-07T00:53:07;8.20;;;7.50;;
12703;SDS011;6416;52.182;7.650;2023-05-07T00:55:33;8.60;;;7.80;;
12703;SDS011;6416;52.182;7.650;2023-05-07T00:58:01;8.73;;;7.93;;
12703;SDS011;6416;52.182;7.650;2023-05-07T01:00:26;8.77;;;7.88;;
12703;SDS011;6416;52.182;7.650;2023-05-07T01:02:52;9.15;;;7.43;;
12703;SDS011;6416;52.182;7.650;2023-05-07T01:05:17;8.57;;;7.70;;
12703;SDS011;6416;52.182;7.650;2023-05-07T01:07:45;8.65;;;7.85;;
12703;SDS011;6416;52.182;7.650;2023-05-07T01:10:11;8.83;;;7.80;;
12703;SDS011;6416;52.182;7.650;2023-05-07T01:12:37;8.95;;;8.05;;
12703;SDS011;6416;52.182;7.650;2023-05-07T01:15:05;9.15;;;8.27;;
12703;SDS011;6416;52.182;7.650;2023-05-07T01:17:35;9.20;;;8.43;;
12703;SDS011;6416;52.182;7.650;2023-05-07T01:20:02;9.20;;;8.30;;
12703;SDS011;6416;52.182;7.650;2023-05-07T01:22:33;8.57;;;7.73;;
12703;SDS011;6416;52.182;7.650;2023-05-07T01:24:59;9.20;;;8.38;;
12703;SDS011;6416;52.182;7.650;2023-05-07T01:27:25;8.98;;;8.10;;
12703;SDS011;6416;52.182;7.650;2023-05-07T01:29:51;9.25;;;8.45;;
12703;SDS011;6416;52.182;7.650;2023-05-07T01:32:16;9.77;;;8.63;;
12703;SDS011;6416;52.182;7.650;2023-05-07T01:34:45;10.00;;;8.98;;
12703;SDS011;6416;52.182;7.650;2023-05-07T01:37:14;9.52;;;8.60;;
12703;SDS011;6416;52.182;7.650;2023-05-07T01:39:39;9.43;;;8.50;;
12703;SDS011;6416;52.182;7.650;2023-05-07T01:42:05;9.50;;;8.70;;
12703;SDS011;6416;52.182;7.650;2023-05-07T01:44:31;8.73;;;7.93;;
12703;SDS011;6416;52.182;7.650;2023-05-07T01:46:57;9.70;;;8.80;;
12703;SDS011;6416;52.182;7.650;2023-05-07T01:49:23;9.40;;;8.40;;
12703;SDS011;6416;52.182;7.650;2023-05-07T01:51:49;9.68;;;8.68;;
12703;SDS011;6416;52.182;7.650;2023-05-07T01:54:15;10.20;;;9.10;;
12703;SDS011;6416;52.182;7.650;2023-05-07T01:56:40;9.43;;;8.47;;
12703;SDS011;6416;52.182;7.650;2023-05-07T01:59:06;9.18;;;8.27;;
12703;SDS011;6416;52.182;7.650;2023-05-07T02:01:31;9.77;;;8.87;;
12703;SDS011;6416;52.182;7.650;2023-05-07T02:03:57;10.18;;;9.13;;
12703;SDS011;6416;52.182;7.650;2023-05-07T02:06:22;10.20;;;9.10;;
12703;SDS011;6416;52.182;7.650;2023-05-07T02:08:48;9.90;;;9.00;;
12703;SDS011;6416;52.182;7.650;2023-05-07T02:11:13;10.00;;;9.10;;
12703;SDS011;6416;52.182;7.650;2023-05-07T02:13:38;9.93;;;9.03;;
12703;SDS011;6416;52.182;7.650;2023-05-07T02:16:04;10.43;;;9.40;;
12703;SDS011;6416;52.182;7.650;2023-05-07T02:18:30;12.20;;;9.57;;
12703;SDS011;6416;52.182;7.650;2023-05-07T02:20:55;9.77;;;8.87;;
12703;SDS011;6416;52.182;7.650;2023-05-07T02:23:21;10.33;;;9.43;;
12703;SDS011;6416;52.182;7.650;2023-05-07T02:25:46;10.13;;;9.23;;
12703;SDS011;6416;52.182;7.650;2023-05-07T02:28:12;10.50;;;9.60;;
12703;SDS011;6416;52.182;7.650;2023-05-07T02:30:38;10.87;;;9.87;;
12703;SDS011;6416;52.182;7.650;2023-05-07T02:33:03;10.60;;;9.50;;
12703;SDS011;6416;52.182;7.650;2023-05-07T02:35:29;9.83;;;8.93;;
12703;SDS011;6416;52.182;7.650;2023-05-07T02:37:54;9.63;;;8.73;;
12703;SDS011;6416;52.182;7.650;2023-05-07T02:40:20;11.20;;;9.97;;
12703;SDS011;6416;52.182;7.650;2023-05-07T02:42:45;10.87;;;9.87;;
12703;SDS011;6416;52.182;7.650;2023-05-07T02:45:11;10.07;;;9.00;;
12703;SDS011;6416;52.182;7.650;2023-05-07T02:47:36;11.07;;;9.03;;
12703;SDS011;6416;52.182;7.650;2023-05-07T02:50:02;10.40;;;9.43;;
12703;SDS011;6416;52.182;7.650;2023-05-07T02:52:28;10.47;;;9.53;;
12703;SDS011;6416;52.182;7.650;2023-05-07T02:54:53;10.23;;;9.23;;
12703;SDS011;6416;52.182;7.650;2023-05-07T02:57:19;9.83;;;8.97;;
12703;SDS011;6416;52.182;7.650;2023-05-07T02:59:44;10.30;;;9.40;;
12703;SDS011;6416;52.182;7.650;2023-05-07T03:02:10;11.27;;;10.17;;
12703;SDS011;6416;52.182;7.650;2023-05-07T03:04:35;10.30;;;9.27;;
12703;SDS011;6416;52.182;7.650;2023-05-07T03:07:01;10.10;;;8.80;;
12703;SDS011;6416;52.182;7.650;2023-05-07T03:09:26;10.33;;;9.33;;
12703;SDS011;6416;52.182;7.650;2023-05-07T03:11:52;10.40;;;9.40;;
12703;SDS011;6416;52.182;7.650;2023-05-07T03:14:17;11.30;;;10.30;;
12703;SDS011;6416;52.182;7.650;2023-05-07T03:16:42;11.43;;;9.77;;
12703;SDS011;6416;52.182;7.650;2023-05-07T03:19:08;10.00;;;9.07;;
12703;SDS011;6416;52.182;7.650;2023-05-07T03:21:33;11.53;;;10.43;;
12703;SDS011;6416;52.182;7.650;2023-05-07T03:23:59;11.27;;;10.27;;
12703;SDS011;6416;52.182;7.650;2023-05-07T03:26:25;11.70;;;10.60;;
12703;SDS011;6416;52.182;7.650;2023-05-07T03:28:51;11.90;;;10.80;;
12703;SDS011;6416;52.182;7.650;2023-05-07T03:31:16;11.27;;;10.10;;
12703;SDS011;6416;52.182;7.650;2023-05-07T03:33:52;14.47;;;10.60;;
12703;SDS011;6416;52.182;7.650;2023-05-07T03:36:19;12.13;;;11.03;;
12703;SDS011;6416;52.182;7.650;2023-05-07T03:38:45;12.20;;;11.03;;
12703;SDS011;6416;52.182;7.650;2023-05-07T03:41:11;11.43;;;10.33;;
12703;SDS011;6416;52.182;7.650;2023-05-07T03:43:36;12.63;;;11.40;;
12703;SDS011;6416;52.182;7.650;2023-05-07T03:46:02;11.60;;;10.47;;
12703;SDS011;6416;52.182;7.650;2023-05-07T03:48:27;11.87;;;10.80;;
12703;SDS011;6416;52.182;7.650;2023-05-07T03:50:53;12.47;;;11.27;;
12703;SDS011;6416;52.182;7.650;2023-05-07T03:53:18;11.53;;;10.33;;
12703;SDS011;6416;52.182;7.650;2023-05-07T03:55:44;12.40;;;11.27;;
12703;SDS011;6416;52.182;7.650;2023-05-07T03:58:09;12.07;;;10.13;;
12703;SDS011;6416;52.182;7.650;2023-05-07T04:00:35;12.97;;;11.37;;
12703;SDS011;6416;52.182;7.650;2023-05-07T04:03:00;11.70;;;10.60;;
12703;SDS011;6416;52.182;7.650;2023-05-07T04:05:25;12.27;;;11.07;;
12703;SDS011;6416;52.182;7.650;2023-05-07T04:07:51;11.03;;;9.93;;
12703;SDS011;6416;52.182;7.650;2023-05-07T04:10:16;11.90;;;10.77;;
12703;SDS011;6416;52.182;7.650;2023-05-07T04:12:42;11.97;;;10.87;;
12703;SDS011;6416;52.182;7.650;2023-05-07T04:15:07;11.63;;;10.53;;
12703;SDS011;6416;52.182;7.650;2023-05-07T04:17:33;12.13;;;10.93;;
12703;SDS011;6416;52.182;7.650;2023-05-07T04:19:59;11.27;;;10.27;;
12703;SDS011;6416;52.182;7.650;2023-05-07T04:22:24;12.23;;;10.47;;
12703;SDS011;6416;52.182;7.650;2023-05-07T04:24:49;11.73;;;10.63;;
12703;SDS011;6416;52.182;7.650;2023-05-07T04:27:15;11.53;;;10.43;;
12703;SDS011;6416;52.182;7.650;2023-05-07T04:29:40;11.73;;;10.13;;
12703;SDS011;6416;52.182;7.650;2023-05-07T04:32:06;12.40;;;11.20;;
12703;SDS011;6416;52.182;7.650;2023-05-07T04:34:31;11.50;;;10.40;;
12703;SDS011;6416;52.182;7.650;2023-05-07T04:36:58;10.90;;;9.90;;
12703;SDS011;6416;52.182;7.650;2023-05-07T04:39:24;11.87;;;10.73;;
12703;SDS011;6416;52.182;7.650;2023-05-07T04:41:49;11.20;;;10.20;;
12703;SDS011;6416;52.182;7.650;2023-05-07T04:44:14;11.10;;;10.00;;
12703;SDS011;6416;52.182;7.650;2023-05-07T04:46:40;11.10;;;9.90;;
12703;SDS011;6416;52.182;7.650;2023-05-07T04:49:05;11.20;;;10.10;;
12703;SDS011;6416;52.182;7.650;2023-05-07T04:51:31;10.97;;;9.90;;
12703;SDS011;6416;52.182;7.650;2023-05-07T04:53:56;11.30;;;10.20;;
12703;SDS011;6416;52.182;7.650;2023-05-07T04:56:22;11.13;;;10.13;;
12703;SDS011;6416;52.182;7.650;2023-05-07T04:58:47;11.63;;;10.63;;
12703;SDS011;6416;52.182;7.650;2023-05-07T05:01:12;12.93;;;10.23;;
12703;SDS011;6416;52.182;7.650;2023-05-07T05:03:38;11.07;;;10.07;;
12703;SDS011;6416;52.182;7.650;2023-05-07T05:06:03;11.40;;;10.27;;
12703;SDS011;6416;52.182;7.650;2023-05-07T05:08:29;10.10;;;9.20;;
12703;SDS011;6416;52.182;7.650;2023-05-07T05:10:55;10.90;;;9.80;;
12703;SDS011;6416;52.182;7.650;2023-05-07T05:13:20;10.70;;;9.60;;
12703;SDS011;6416;52.182;7.650;2023-05-07T05:15:46;11.13;;;10.03;;
12703;SDS011;6416;52.182;7.650;2023-05-07T05:18:11;10.30;;;9.40;;
12703;SDS011;6416;52.182;7.650;2023-05-07T05:20:38;10.57;;;9.57;;
12703;SDS011;6416;52.182;7.650;2023-05-07T05:23:03;11.63;;;10.43;;
12703;SDS011;6416;52.182;7.650;2023-05-07T05:25:29;10.70;;;9.70;;
12703;SDS011;6416;52.182;7.650;2023-05-07T05:27:54;11.37;;;10.27;;
12703;SDS011;6416;52.182;7.650;2023-05-07T05:30:20;10.73;;;9.63;;
12703;SDS011;6416;52.182;7.650;2023-05-07T05:32:45;11.13;;;9.83;;
12703;SDS011;6416;52.182;7.650;2023-05-07T05:35:11;9.77;;;8.87;;
12703;SDS011;6416;52.182;7.650;2023-05-07T05:37:36;12.07;;;10.97;;
12703;SDS011;6416;52.182;7.650;2023-05-07T05:40:01;11.40;;;10.30;;
12703;SDS011;6416;52.182;7.650;2023-05-07T05:42:27;10.63;;;9.70;;
12703;SDS011;6416;52.182;7.650;2023-05-07T05:44:53;11.37;;;10.17;;
12703;SDS011;6416;52.182;7.650;2023-05-07T05:47:18;11.10;;;10.00;;
12703;SDS011;6416;52.182;7.650;2023-05-07T05:49:43;11.30;;;10.20;;
12703;SDS011;6416;52.182;7.650;2023-05-07T05:52:09;12.20;;;11.07;;
12703;SDS011;6416;52.182;7.650;2023-05-07T05:54:37;11.27;;;10.17;;
12703;SDS011;6416;52.182;7.650;2023-05-07T05:57:02;11.10;;;10.07;;
12703;SDS011;6416;52.182;7.650;2023-05-07T05:59:29;10.70;;;9.60;;
12703;SDS011;6416;52.182;7.650;2023-05-07T06:01:54;10.57;;;9.57;;
12703;SDS011;6416;52.182;7.650;2023-05-07T06:04:20;10.60;;;9.60;;
12703;SDS011;6416;52.182;7.650;2023-05-07T06:06:45;10.43;;;9.43;;
12703;SDS011;6416;52.182;7.650;2023-05-07T06:09:10;10.40;;;9.47;;
12703;SDS011;6416;52.182;7.650;2023-05-07T06:11:36;10.43;;;9.53;;
12703;SDS011;6416;52.182;7.650;2023-05-07T06:14:01;10.13;;;9.13;;
12703;SDS011;6416;52.182;7.650;2023-05-07T06:16:27;10.40;;;9.50;;
12703;SDS011;6416;52.182;7.650;2023-05-07T06:18:53;9.77;;;8.98;;
12703;SDS011;6416;52.182;7.650;2023-05-07T06:21:19;10.83;;;9.73;;
12703;SDS011;6416;52.182;7.650;2023-05-07T06:23:44;9.30;;;8.40;;
12703;SDS011;6416;52.182;7.650;2023-05-07T06:26:10;9.90;;;9.00;;
12703;SDS011;6416;52.182;7.650;2023-05-07T06:28:35;10.60;;;9.68;;
12703;SDS011;6416;52.182;7.650;2023-05-07T06:31:13;10.48;;;9.45;;
12703;SDS011;6416;52.182;7.650;2023-05-07T06:33:44;10.55;;;9.55;;
12703;SDS011;6416;52.182;7.650;2023-05-07T06:36:09;10.65;;;9.65;;
12703;SDS011;6416;52.182;7.650;2023-05-07T06:38:35;10.88;;;9.88;;
12703;SDS011;6416;52.182;7.650;2023-05-07T06:41:00;10.82;;;9.82;;
12703;SDS011;6416;52.182;7.650;2023-05-07T06:43:26;9.10;;;8.27;;
12703;SDS011;6416;52.182;7.650;2023-05-07T06:45:51;10.35;;;9.25;;
12703;SDS011;6416;52.182;7.650;2023-05-07T06:48:17;9.88;;;8.95;;
12703;SDS011;6416;52.182;7.650;2023-05-07T06:50:42;10.52;;;9.30;;
12703;SDS011;6416;52.182;7.650;2023-05-07T06:53:08;10.32;;;9.38;;
12703;SDS011;6416;52.182;7.650;2023-05-07T06:55:33;9.80;;;8.90;;
12703;SDS011;6416;52.182;7.650;2023-05-07T06:57:59;10.60;;;9.70;;
12703;SDS011;6416;52.182;7.650;2023-05-07T07:00:24;11.50;;;10.40;;
12703;SDS011;6416;52.182;7.650;2023-05-07T07:02:50;11.70;;;10.60;;
12703;SDS011;6416;52.182;7.650;2023-05-07T07:05:15;10.98;;;9.98;;
12703;SDS011;6416;52.182;7.650;2023-05-07T07:07:41;10.05;;;9.20;;
12703;SDS011;6416;52.182;7.650;2023-05-07T07:10:07;10.55;;;9.55;;
12703;SDS011;6416;52.182;7.650;2023-05-07T07:12:32;11.80;;;9.88;;
12703;SDS011;6416;52.182;7.650;2023-05-07T07:14:58;9.77;;;8.88;;
12703;SDS011;6416;52.182;7.650;2023-05-07T07:17:23;10.63;;;9.52;;
12703;SDS011;6416;52.182;7.650;2023-05-07T07:19:49;10.23;;;9.23;;
12703;SDS011;6416;52.182;7.650;2023-05-07T07:22:14;11.65;;;10.55;;
12703;SDS011;6416;52.182;7.650;2023-05-07T07:24:40;10.38;;;9.45;;
12703;SDS011;6416;52.182;7.650;2023-05-07T07:27:06;11.27;;;10.18;;
12703;SDS011;6416;52.182;7.650;2023-05-07T07:29:31;10.45;;;9.45;;
12703;SDS011;6416;52.182;7.650;2023-05-07T07:31:57;11.13;;;10.02;;
12703;SDS011;6416;52.182;7.650;2023-05-07T07:34:22;10.38;;;9.38;;
12703;SDS011;6416;52.182;7.650;2023-05-07T07:36:47;10.68;;;9.57;;
12703;SDS011;6416;52.182;7.650;2023-05-07T07:39:13;10.70;;;9.70;;
12703;SDS011;6416;52.182;7.650;2023-05-07T07:41:38;10.35;;;9.35;;
12703;SDS011;6416;52.182;7.650;2023-05-07T07:44:04;10.45;;;9.43;;
12703;SDS011;6416;52.182;7.650;2023-05-07T07:46:29;11.18;;;10.10;;
12703;SDS011;6416;52.182;7.650;2023-05-07T07:48:55;11.77;;;10.57;;
12703;SDS011;6416;52.182;7.650;2023-05-07T07:51:20;10.82;;;9.77;;
12703;SDS011;6416;52.182;7.650;2023-05-07T07:53:46;9.95;;;9.05;;
12703;SDS011;6416;52.182;7.650;2023-05-07T07:56:11;11.02;;;10.02;;
12703;SDS011;6416;52.182;7.650;2023-05-07T07:58:37;11.18;;;10.07;;
12703;SDS011;6416;52.182;7.650;2023-05-07T08:01:02;10.73;;;9.73;;
12703;SDS011;6416;52.182;7.650;2023-05-07T08:03:28;11.13;;;10.13;;
12703;SDS011;6416;52.182;7.650;2023-05-07T08:05:53;9.88;;;8.95;;
12703;SDS011;6416;52.182;7.650;2023-05-07T08:08:19;10.35;;;9.23;;
12703;SDS011;6416;52.182;7.650;2023-05-07T08:10:44;10.20;;;9.30;;
12703;SDS011;6416;52.182;7.650;2023-05-07T08:13:10;13.30;;;10.15;;
12703;SDS011;6416;52.182;7.650;2023-05-07T08:15:35;9.90;;;9.00;;
12703;SDS011;6416;52.182;7.650;2023-05-07T08:18:01;9.43;;;8.57;;
12703;SDS011;6416;52.182;7.650;2023-05-07T08:20:28;10.23;;;9.20;;
12703;SDS011;6416;52.182;7.650;2023-05-07T08:22:53;10.20;;;9.30;;
12703;SDS011;6416;52.182;7.650;2023-05-07T08:25:19;10.43;;;9.43;;
12703;SDS011;6416;52.182;7.650;2023-05-07T08:27:44;9.93;;;8.90;;
12703;SDS011;6416;52.182;7.650;2023-05-07T08:30:10;9.07;;;8.18;;
12703;SDS011;6416;52.182;7.650;2023-05-07T08:32:36;10.30;;;9.27;;
12703;SDS011;6416;52.182;7.650;2023-05-07T08:35:01;11.82;;;8.90;;
12703;SDS011;6416;52.182;7.650;2023-05-07T08:37:27;10.88;;;8.75;;
12703;SDS011;6416;52.182;7.650;2023-05-07T08:39:52;10.02;;;9.13;;
12703;SDS011;6416;52.182;7.650;2023-05-07T08:42:18;10.38;;;9.38;;
12703;SDS011;6416;52.182;7.650;2023-05-07T08:44:45;10.32;;;9.35;;
12703;SDS011;6416;52.182;7.650;2023-05-07T08:47:11;9.95;;;8.95;;
12703;SDS011;6416;52.182;7.650;2023-05-07T08:49:36;10.15;;;9.25;;
12703;SDS011;6416;52.182;7.650;2023-05-07T08:52:03;10.13;;;8.77;;
12703;SDS011;6416;52.182;7.650;2023-05-07T08:54:29;9.80;;;8.95;;
12703;SDS011;6416;52.182;7.650;2023-05-07T08:56:56;9.20;;;8.30;;
12703;SDS011;6416;52.182;7.650;2023-05-07T08:59:21;9.35;;;8.05;;
12703;SDS011;6416;52.182;7.650;2023-05-07T09:01:47;8.55;;;7.75;;
12703;SDS011;6416;52.182;7.650;2023-05-07T09:04:12;9.70;;;8.70;;
12703;SDS011;6416;52.182;7.650;2023-05-07T09:06:38;9.50;;;8.65;;
12703;SDS011;6416;52.182;7.650;2023-05-07T09:09:03;8.85;;;8.05;;
12703;SDS011;6416;52.182;7.650;2023-05-07T09:11:29;8.55;;;7.75;;
12703;SDS011;6416;52.182;7.650;2023-05-07T09:13:58;8.07;;;7.38;;
12703;SDS011;6416;52.182;7.650;2023-05-07T09:16:24;8.27;;;7.47;;
12703;SDS011;6416;52.182;7.650;2023-05-07T09:18:53;8.57;;;7.88;;
12703;SDS011;6416;52.182;7.650;2023-05-07T09:21:19;8.88;;;8.05;;
12703;SDS011;6416;52.182;7.650;2023-05-07T09:23:47;8.45;;;7.65;;
12703;SDS011;6416;52.182;7.650;2023-05-07T09:26:15;7.82;;;7.13;;
12703;SDS011;6416;52.182;7.650;2023-05-07T09:28:40;8.20;;;7.43;;
12703;SDS011;6416;52.182;7.650;2023-05-07T09:31:10;8.05;;;7.35;;
12703;SDS011;6416;52.182;7.650;2023-05-07T09:33:37;8.48;;;7.57;;
12703;SDS011;6416;52.182;7.650;2023-05-07T09:36:03;8.00;;;7.05;;
12703;SDS011;6416;52.182;7.650;2023-05-07T09:38:29;7.55;;;6.75;;
12703;SDS011;6416;52.182;7.650;2023-05-07T09:41:06;8.18;;;7.43;;
12703;SDS011;6416;52.182;7.650;2023-05-07T09:43:34;8.32;;;7.53;;
12703;SDS011;6416;52.182;7.650;2023-05-07T09:46:02;7.93;;;6.65;;
12703;SDS011;6416;52.182;7.650;2023-05-07T09:48:31;6.85;;;6.25;;
12703;SDS011;6416;52.182;7.650;2023-05-07T09:51:01;7.13;;;6.53;;
12703;SDS011;6416;52.182;7.650;2023-05-07T09:53:33;6.75;;;6.15;;
12703;SDS011;6416;52.182;7.650;2023-05-07T09:55:58;6.80;;;6.20;;
12703;SDS011;6416;52.182;7.650;2023-05-07T09:58:25;6.40;;;5.88;;
12703;SDS011;6416;52.182;7.650;2023-05-07T10:00:51;6.85;;;6.18;;
12703;SDS011;6416;52.182;7.650;2023-05-07T10:03:18;7.13;;;6.43;;
12703;SDS011;6416;52.182;7.650;2023-05-07T10:05:45;6.78;;;6.25;;
12703;SDS011;6416;52.182;7.650;2023-05-07T10:08:12;7.85;;;6.00;;
12703;SDS011;6416;52.182;7.650;2023-05-07T10:10:38;6.65;;;5.97;;
12703;SDS011;6416;52.182;7.650;2023-05-07T10:13:04;6.10;;;5.60;;
12703;SDS011;6416;52.182;7.650;2023-05-07T10:15:30;6.82;;;6.22;;
12703;SDS011;6416;52.182;7.650;2023-05-07T10:17:56;5.68;;;5.25;;
12703;SDS011;6416;52.182;7.650;2023-05-07T10:20:22;7.00;;;5.90;;
12703;SDS011;6416;52.182;7.650;2023-05-07T10:22:48;7.90;;;5.45;;
12703;SDS011;6416;52.182;7.650;2023-05-07T10:25:26;5.30;;;4.90;;
12703;SDS011;6416;52.182;7.650;2023-05-07T10:27:55;5.60;;;5.10;;
12703;SDS011;6416;52.182;7.650;2023-05-07T10:33:38;5.22;;;4.72;;
12703;SDS011;6416;52.182;7.650;2023-05-07T10:36:05;5.68;;;5.28;;
12703;SDS011;6416;52.182;7.650;2023-05-07T10:38:31;5.35;;;4.95;;
12703;SDS011;6416;52.182;7.650;2023-05-07T10:40:56;4.50;;;4.13;;
12703;SDS011;6416;52.182;7.650;2023-05-07T10:43:22;4.72;;;4.32;;
12703;SDS011;6416;52.182;7.650;2023-05-07T10:46:09;5.20;;;4.80;;
12703;SDS011;6416;52.182;7.650;2023-05-07T10:48:34;4.82;;;4.32;;
12703;SDS011;6416;52.182;7.650;2023-05-07T10:51:26;4.50;;;4.10;;
12703;SDS011;6416;52.182;7.650;2023-05-07T10:54:34;4.65;;;4.25;;
12703;SDS011;6416;52.182;7.650;2023-05-07T10:56:44;4.00;;;3.70;;
12703;SDS011;6416;52.182;7.650;2023-05-07T11:01:50;4.00;;;3.70;;
12703;SDS011;6416;52.182;7.650;2023-05-07T11:04:20;4.05;;;3.75;;
12703;SDS011;6416;52.182;7.650;2023-05-07T11:10:14;4.57;;;3.60;;
12703;SDS011;6416;52.182;7.650;2023-05-07T11:15:06;3.97;;;3.67;;
12703;SDS011;6416;52.182;7.650;2023-05-07T11:17:52;3.83;;;3.53;;
12703;SDS011;6416;52.182;7.650;2023-05-07T11:26:00;3.92;;;3.60;;
12703;SDS011;6416;52.182;7.650;2023-05-07T11:28:39;4.00;;;3.40;;
12703;SDS011;6416;52.182;7.650;2023-05-07T11:31:06;4.68;;;3.50;;
12703;SDS011;6416;52.182;7.650;2023-05-07T11:33:33;3.85;;;3.55;;
12703;SDS011;6416;52.182;7.650;2023-05-07T11:35:59;3.70;;;3.40;;
12703;SDS011;6416;52.182;7.650;2023-05-07T11:38:26;3.50;;;3.20;;
12703;SDS011;6416;52.182;7.650;2023-05-07T11:40:56;3.53;;;3.22;;
12703;SDS011;6416;52.182;7.650;2023-05-07T11:43:23;3.92;;;3.50;;
12703;SDS011;6416;52.182;7.650;2023-05-07T11:45:49;3.00;;;2.75;;
12703;SDS011;6416;52.182;7.650;2023-05-07T11:48:15;3.67;;;3.38;;
12703;SDS011;6416;52.182;7.650;2023-05-07T11:53:26;3.65;;;3.38;;
12703;SDS011;6416;52.182;7.650;2023-05-07T11:56:06;3.33;;;3.03;;
12703;SDS011;6416;52.182;7.650;2023-05-07T11:58:33;3.33;;;3.13;;
12703;SDS011;6416;52.182;7.650;2023-05-07T12:00:58;3.10;;;2.90;;
12703;SDS011;6416;52.182;7.650;2023-05-07T12:03:24;3.10;;;2.90;;
12703;SDS011;6416;52.182;7.650;2023-05-07T12:05:49;3.53;;;3.22;;
12703;SDS011;6416;52.182;7.650;2023-05-07T12:08:15;3.45;;;3.15;;
12703;SDS011;6416;52.182;7.650;2023-05-07T12:10:41;3.22;;;3.03;;
12703;SDS011;6416;52.182;7.650;2023-05-07T12:13:14;3.13;;;2.88;;
12703;SDS011;6416;52.182;7.650;2023-05-07T12:15:44;3.80;;;3.28;;
12703;SDS011;6416;52.182;7.650;2023-05-07T12:18:09;2.80;;;2.60;;
12703;SDS011;6416;52.182;7.650;2023-05-07T12:20:38;3.10;;;2.80;;
12703;SDS011;6416;52.182;7.650;2023-05-07T12:23:04;3.05;;;2.83;;
12703;SDS011;6416;52.182;7.650;2023-05-07T12:25:31;2.92;;;2.72;;
12703;SDS011;6416;52.182;7.650;2023-05-07T12:27:57;3.03;;;2.83;;
12703;SDS011;6416;52.182;7.650;2023-05-07T12:30:25;3.88;;;2.70;;
12703;SDS011;6416;52.182;7.650;2023-05-07T12:32:53;2.97;;;2.78;;
12703;SDS011;6416;52.182;7.650;2023-05-07T12:35:28;3.10;;;2.90;;
12703;SDS011;6416;52.182;7.650;2023-05-07T12:37:55;5.22;;;2.90;;
12703;SDS011;6416;52.182;7.650;2023-05-07T12:40:22;3.05;;;2.85;;
12703;SDS011;6416;52.182;7.650;2023-05-07T12:42:47;3.17;;;2.88;;
12703;SDS011;6416;52.182;7.650;2023-05-07T12:45:18;3.65;;;2.75;;
12703;SDS011;6416;52.182;7.650;2023-05-07T12:47:44;2.70;;;2.50;;
12703;SDS011;6416;52.182;7.650;2023-05-07T12:50:10;2.58;;;2.38;;
12703;SDS011;6416;52.182;7.650;2023-05-07T12:52:36;2.78;;;2.58;;
12703;SDS011;6416;52.182;7.650;2023-05-07T12:55:05;4.13;;;2.88;;
12703;SDS011;6416;52.182;7.650;2023-05-07T12:57:37;3.08;;;2.85;;
12703;SDS011;6416;52.182;7.650;2023-05-07T13:00:03;2.65;;;2.45;;
12703;SDS011;6416;52.182;7.650;2023-05-07T13:02:47;2.85;;;2.63;;
12703;SDS011;6416;52.182;7.650;2023-05-07T13:05:12;3.28;;;3.08;;
12703;SDS011;6416;52.182;7.650;2023-05-07T13:07:38;3.20;;;3.00;;
12703;SDS011;6416;52.182;7.650;2023-05-07T13:10:04;3.53;;;3.22;;
12703;SDS011;6416;52.182;7.650;2023-05-07T13:12:30;3.83;;;3.20;;
12703;SDS011;6416;52.182;7.650;2023-05-07T13:14:56;5.43;;;3.15;;
12703;SDS011;6416;52.182;7.650;2023-05-07T13:17:21;3.42;;;3.13;;
12703;SDS011;6416;52.182;7.650;2023-05-07T13:19:47;2.97;;;2.78;;
12703;SDS011;6416;52.182;7.650;2023-05-07T13:22:12;3.25;;;2.95;;
12703;SDS011;6416;52.182;7.650;2023-05-07T13:24:37;3.35;;;3.05;;
12703;SDS011;6416;52.182;7.650;2023-05-07T13:27:03;3.80;;;3.13;;
12703;SDS011;6416;52.182;7.650;2023-05-07T13:29:28;3.50;;;3.20;;
12703;SDS011;6416;52.182;7.650;2023-05-07T13:31:54;3.50;;;3.20;;
12703;SDS011;6416;52.182;7.650;2023-05-07T13:34:23;3.00;;;2.80;;
12703;SDS011;6416;52.182;7.650;2023-05-07T13:36:48;3.15;;;2.85;;
12703;SDS011;6416;52.182;7.650;2023-05-07T13:39:14;3.40;;;3.10;;
12703;SDS011;6416;52.182;7.650;2023-05-07T13:41:39;3.97;;;3.17;;
12703;SDS011;6416;52.182;7.650;2023-05-07T13:44:05;3.33;;;3.03;;
12703;SDS011;6416;52.182;7.650;2023-05-07T13:46:30;3.30;;;3.00;;
12703;SDS011;6416;52.182;7.650;2023-05-07T13:48:56;3.03;;;2.78;;
12703;SDS011;6416;52.182;7.650;2023-05-07T13:51:21;2.78;;;2.58;;
12703;SDS011;6416;52.182;7.650;2023-05-07T13:53:47;2.90;;;2.70;;
12703;SDS011;6416;52.182;7.650;2023-05-07T13:56:13;3.30;;;3.00;;
12703;SDS011;6416;52.182;7.650;2023-05-07T13:58:39;2.80;;;2.60;;
12703;SDS011;6416;52.182;7.650;2023-05-07T14:01:04;3.33;;;3.05;;
12703;SDS011;6416;52.182;7.650;2023-05-07T14:03:30;3.05;;;2.85;;
12703;SDS011;6416;52.182;7.650;2023-05-07T14:05:55;3.80;;;3.50;;
12703;SDS011;6416;52.182;7.650;2023-05-07T14:08:21;4.57;;;3.05;;
12703;SDS011;6416;52.182;7.650;2023-05-07T14:10:46;2.88;;;2.67;;
12703;SDS011;6416;52.182;7.650;2023-05-07T14:13:11;3.10;;;2.90;;
12703;SDS011;6416;52.182;7.650;2023-05-07T14:15:37;2.80;;;2.60;;
12703;SDS011;6416;52.182;7.650;2023-05-07T14:18:02;2.70;;;2.50;;
12703;SDS011;6416;52.182;7.650;2023-05-07T14:20:28;3.10;;;2.72;;
12703;SDS011;6416;52.182;7.650;2023-05-07T14:22:54;2.72;;;2.53;;
12703;SDS011;6416;52.182;7.650;2023-05-07T14:25:19;3.70;;;3.40;;
12703;SDS011;6416;52.182;7.650;2023-05-07T14:27:45;2.90;;;2.70;;
12703;SDS011;6416;52.182;7.650;2023-05-07T14:30:10;3.05;;;2.75;;
12703;SDS011;6416;52.182;7.650;2023-05-07T14:32:36;2.90;;;2.70;;
12703;SDS011;6416;52.182;7.650;2023-05-07T14:35:01;3.30;;;3.00;;
12703;SDS011;6416;52.182;7.650;2023-05-07T14:37:27;2.90;;;2.65;;
12703;SDS011;6416;52.182;7.650;2023-05-07T14:39:52;2.72;;;2.53;;
12703;SDS011;6416;52.182;7.650;2023-05-07T14:42:18;3.05;;;2.75;;
12703;SDS011;6416;52.182;7.650;2023-05-07T14:44:43;2.67;;;2.47;;
12703;SDS011;6416;52.182;7.650;2023-05-07T14:47:09;2.78;;;2.58;;
12703;SDS011;6416;52.182;7.650;2023-05-07T14:49:34;2.90;;;2.70;;
12703;SDS011;6416;52.182;7.650;2023-05-07T14:52:00;2.80;;;2.60;;
12703;SDS011;6416;52.182;7.650;2023-05-07T14:54:25;3.20;;;2.88;;
12703;SDS011;6416;52.182;7.650;2023-05-07T14:56:51;2.88;;;2.67;;
12703;SDS011;6416;52.182;7.650;2023-05-07T14:59:17;3.33;;;2.63;;
12703;SDS011;6416;52.182;7.650;2023-05-07T15:01:47;2.95;;;2.70;;
12703;SDS011;6416;52.182;7.650;2023-05-07T15:04:12;2.80;;;2.42;;
12703;SDS011;6416;52.182;7.650;2023-05-07T15:06:38;2.50;;;2.35;;
12703;SDS011;6416;52.182;7.650;2023-05-07T15:09:04;6.60;;;5.60;;